sensor_id;sensor_type;location;lat;lon;timestamp;P1;durP1;ratioP1;P2;durP2;ratioP2
16792;SDS011;8513;42.662;23.350;2023-10-13T00:01:21;16.85;;;8.95;;
16792;SDS011;8513;42.662;23.350;2023-10-13T00:03:48;11.90;;;8.73;;
16792;SDS011;8513;42.662;23.350;2023-10-13T00:06:13;12.02;;;9.60;;
16792;SDS011;8513;42.662;23.350;2023-10-13T00:08:40;12.52;;;8.85;;
16792;SDS011;8513;42.662;23.350;2023-10-13T00:11:06;11.95;;;8.55;;
16792;SDS011;8513;42.662;23.350;2023-10-13T00:13:34;13.55;;;9.23;;
16792;SDS011;8513;42.662;23.350;2023-10-13T00:16:20;12.30;;;8.65;;
16792;SDS011;8513;42.662;23.350;2023-10-13T00:18:47;13.98;;;8.45;;
16792;SDS011;8513;42.662;23.350;2023-10-13T00:21:15;15.90;;;9.77;;
16792;SDS011;8513;42.662;23.350;2023-10-13T00:23:45;16.50;;;9.45;;
16792;SDS011;8513;42.662;23.350;2023-10-13T00:26:20;11.35;;;8.55;;
16792;SDS011;8513;42.662;23.350;2023-10-13T00:29:02;9.52;;;8.55;;
16792;SDS011;8513;42.662;23.350;2023-10-13T00:31:38;10.75;;;9.02;;
16792;SDS011;8513;42.662;23.350;2023-10-13T00:34:08;12.48;;;8.18;;
16792;SDS011;8513;42.662;23.350;2023-10-13T00:36:40;12.43;;;8.70;;
16792;SDS011;8513;42.662;23.350;2023-10-13T00:39:25;11.55;;;8.50;;
16792;SDS011;8513;42.662;23.350;2023-10-13T00:41:53;15.23;;;9.15;;
16792;SDS011;8513;42.662;23.350;2023-10-13T00:44:24;16.58;;;9.68;;
16792;SDS011;8513;42.662;23.350;2023-10-13T00:47:09;15.77;;;9.90;;
16792;SDS011;8513;42.662;23.350;2023-10-13T00:49:41;13.27;;;9.30;;
16792;SDS011;8513;42.662;23.350;2023-10-13T00:52:12;13.68;;;8.90;;
16792;SDS011;8513;42.662;23.350;2023-10-13T00:54:40;13.48;;;8.95;;
16792;SDS011;8513;42.662;23.350;2023-10-13T00:57:14;10.43;;;8.68;;
16792;SDS011;8513;42.662;23.350;2023-10-13T00:59:53;12.93;;;9.07;;
16792;SDS011;8513;42.662;23.350;2023-10-13T01:02:20;9.73;;;8.75;;
16792;SDS011;8513;42.662;23.350;2023-10-13T01:05:01;10.38;;;8.35;;
16792;SDS011;8513;42.662;23.350;2023-10-13T01:07:28;12.55;;;8.95;;
16792;SDS011;8513;42.662;23.350;2023-10-13T01:09:53;11.13;;;7.97;;
16792;SDS011;8513;42.662;23.350;2023-10-13T01:12:20;13.80;;;8.35;;
16792;SDS011;8513;42.662;23.350;2023-10-13T01:14:48;12.80;;;8.80;;
16792;SDS011;8513;42.662;23.350;2023-10-13T01:17:14;11.43;;;8.80;;
16792;SDS011;8513;42.662;23.350;2023-10-13T01:19:39;12.65;;;9.40;;
16792;SDS011;8513;42.662;23.350;2023-10-13T01:22:08;12.02;;;8.00;;
16792;SDS011;8513;42.662;23.350;2023-10-13T01:24:34;13.10;;;9.10;;
16792;SDS011;8513;42.662;23.350;2023-10-13T01:27:03;12.23;;;8.02;;
16792;SDS011;8513;42.662;23.350;2023-10-13T01:29:50;10.30;;;8.23;;
16792;SDS011;8513;42.662;23.350;2023-10-13T01:32:22;11.55;;;8.20;;
16792;SDS011;8513;42.662;23.350;2023-10-13T01:34:49;12.63;;;9.30;;
16792;SDS011;8513;42.662;23.350;2023-10-13T01:37:20;10.07;;;7.95;;
16792;SDS011;8513;42.662;23.350;2023-10-13T01:39:45;12.80;;;7.40;;
16792;SDS011;8513;42.662;23.350;2023-10-13T01:42:17;11.70;;;8.25;;
16792;SDS011;8513;42.662;23.350;2023-10-13T01:44:47;14.18;;;7.82;;
16792;SDS011;8513;42.662;23.350;2023-10-13T01:47:13;12.13;;;8.10;;
16792;SDS011;8513;42.662;23.350;2023-10-13T01:49:41;14.35;;;8.75;;
16792;SDS011;8513;42.662;23.350;2023-10-13T01:52:08;12.73;;;8.75;;
16792;SDS011;8513;42.662;23.350;2023-10-13T01:54:36;12.30;;;7.93;;
16792;SDS011;8513;42.662;23.350;2023-10-13T01:57:06;11.10;;;8.23;;
16792;SDS011;8513;42.662;23.350;2023-10-13T01:59:32;13.60;;;8.55;;
16792;SDS011;8513;42.662;23.350;2023-10-13T02:01:57;11.55;;;8.50;;
16792;SDS011;8513;42.662;23.350;2023-10-13T02:04:25;14.60;;;8.90;;
16792;SDS011;8513;42.662;23.350;2023-10-13T02:06:52;12.93;;;8.23;;
16792;SDS011;8513;42.662;23.350;2023-10-13T02:09:17;10.27;;;8.38;;
16792;SDS011;8513;42.662;23.350;2023-10-13T02:11:52;13.18;;;7.70;;
16792;SDS011;8513;42.662;23.350;2023-10-13T02:14:22;12.45;;;8.30;;
16792;SDS011;8513;42.662;23.350;2023-10-13T02:16:49;12.88;;;8.75;;
16792;SDS011;8513;42.662;23.350;2023-10-13T02:19:16;13.90;;;8.43;;
16792;SDS011;8513;42.662;23.350;2023-10-13T02:21:44;13.55;;;8.93;;
16792;SDS011;8513;42.662;23.350;2023-10-13T02:24:10;13.05;;;8.13;;
16792;SDS011;8513;42.662;23.350;2023-10-13T02:26:43;14.35;;;8.52;;
16792;SDS011;8513;42.662;23.350;2023-10-13T02:29:09;11.55;;;8.85;;
16792;SDS011;8513;42.662;23.350;2023-10-13T02:31:40;14.00;;;8.75;;
16792;SDS011;8513;42.662;23.350;2023-10-13T02:34:07;13.63;;;8.65;;
16792;SDS011;8513;42.662;23.350;2023-10-13T02:36:36;12.80;;;8.65;;
16792;SDS011;8513;42.662;23.350;2023-10-13T02:39:13;10.32;;;8.00;;
16792;SDS011;8513;42.662;23.350;2023-10-13T02:41:41;11.80;;;8.57;;
16792;SDS011;8513;42.662;23.350;2023-10-13T02:44:12;10.52;;;8.23;;
16792;SDS011;8513;42.662;23.350;2023-10-13T02:46:45;11.65;;;8.35;;
16792;SDS011;8513;42.662;23.350;2023-10-13T02:49:15;11.75;;;8.43;;
16792;SDS011;8513;42.662;23.350;2023-10-13T02:51:44;11.88;;;8.98;;
16792;SDS011;8513;42.662;23.350;2023-10-13T02:54:10;11.18;;;9.40;;
16792;SDS011;8513;42.662;23.350;2023-10-13T02:56:37;13.75;;;9.23;;
16792;SDS011;8513;42.662;23.350;2023-10-13T02:59:03;10.68;;;8.93;;
16792;SDS011;8513;42.662;23.350;2023-10-13T03:01:30;14.18;;;9.05;;
16792;SDS011;8513;42.662;23.350;2023-10-13T03:03:59;12.48;;;8.77;;
16792;SDS011;8513;42.662;23.350;2023-10-13T03:06:25;11.10;;;8.73;;
16792;SDS011;8513;42.662;23.350;2023-10-13T03:09:01;15.88;;;9.10;;
16792;SDS011;8513;42.662;23.350;2023-10-13T03:11:40;11.40;;;8.93;;
16792;SDS011;8513;42.662;23.350;2023-10-13T03:14:19;11.65;;;8.57;;
16792;SDS011;8513;42.662;23.350;2023-10-13T03:16:51;10.85;;;8.48;;
16792;SDS011;8513;42.662;23.350;2023-10-13T03:19:17;12.00;;;8.90;;
16792;SDS011;8513;42.662;23.350;2023-10-13T03:21:44;11.70;;;8.45;;
16792;SDS011;8513;42.662;23.350;2023-10-13T03:24:11;15.07;;;9.13;;
16792;SDS011;8513;42.662;23.350;2023-10-13T03:26:38;11.52;;;8.48;;
16792;SDS011;8513;42.662;23.350;2023-10-13T03:29:09;9.90;;;8.50;;
16792;SDS011;8513;42.662;23.350;2023-10-13T03:31:38;12.52;;;9.48;;
16792;SDS011;8513;42.662;23.350;2023-10-13T03:34:05;12.35;;;8.35;;
16792;SDS011;8513;42.662;23.350;2023-10-13T03:36:35;12.27;;;8.95;;
16792;SDS011;8513;42.662;23.350;2023-10-13T03:39:19;13.57;;;9.13;;
16792;SDS011;8513;42.662;23.350;2023-10-13T03:41:48;10.32;;;8.02;;
16792;SDS011;8513;42.662;23.350;2023-10-13T03:44:18;10.18;;;7.95;;
16792;SDS011;8513;42.662;23.350;2023-10-13T03:46:44;12.77;;;8.60;;
16792;SDS011;8513;42.662;23.350;2023-10-13T03:49:13;11.18;;;8.45;;
16792;SDS011;8513;42.662;23.350;2023-10-13T03:51:47;16.83;;;8.93;;
16792;SDS011;8513;42.662;23.350;2023-10-13T03:54:13;16.55;;;8.38;;
16792;SDS011;8513;42.662;23.350;2023-10-13T03:56:41;12.02;;;8.77;;
16792;SDS011;8513;42.662;23.350;2023-10-13T03:59:09;9.48;;;8.40;;
16792;SDS011;8513;42.662;23.350;2023-10-13T04:01:43;12.65;;;8.10;;
16792;SDS011;8513;42.662;23.350;2023-10-13T04:04:13;12.95;;;8.65;;
16792;SDS011;8513;42.662;23.350;2023-10-13T04:06:43;9.90;;;8.35;;
16792;SDS011;8513;42.662;23.350;2023-10-13T04:14:36;12.00;;;8.57;;
16792;SDS011;8513;42.662;23.350;2023-10-13T04:17:22;13.75;;;9.98;;
16792;SDS011;8513;42.662;23.350;2023-10-13T04:19:49;13.70;;;9.05;;
16792;SDS011;8513;42.662;23.350;2023-10-13T04:22:31;18.92;;;9.32;;
16792;SDS011;8513;42.662;23.350;2023-10-13T04:28:05;18.17;;;10.35;;
16792;SDS011;8513;42.662;23.350;2023-10-13T04:30:37;22.20;;;10.77;;
16792;SDS011;8513;42.662;23.350;2023-10-13T04:33:23;19.80;;;10.68;;
16792;SDS011;8513;42.662;23.350;2023-10-13T04:36:15;20.83;;;10.45;;
16792;SDS011;8513;42.662;23.350;2023-10-13T04:38:53;23.10;;;10.60;;
16792;SDS011;8513;42.662;23.350;2023-10-13T04:41:30;18.00;;;10.27;;
16792;SDS011;8513;42.662;23.350;2023-10-13T04:44:07;17.75;;;10.95;;
16792;SDS011;8513;42.662;23.350;2023-10-13T04:46:52;15.57;;;9.60;;
16792;SDS011;8513;42.662;23.350;2023-10-13T04:49:24;19.30;;;10.20;;
16792;SDS011;8513;42.662;23.350;2023-10-13T04:52:04;17.40;;;9.98;;
16792;SDS011;8513;42.662;23.350;2023-10-13T04:54:34;21.33;;;10.73;;
16792;SDS011;8513;42.662;23.350;2023-10-13T04:57:31;21.63;;;10.68;;
16792;SDS011;8513;42.662;23.350;2023-10-13T05:00:14;16.05;;;10.68;;
16792;SDS011;8513;42.662;23.350;2023-10-13T05:02:43;19.70;;;11.15;;
16792;SDS011;8513;42.662;23.350;2023-10-13T05:05:25;15.05;;;11.00;;
16792;SDS011;8513;42.662;23.350;2023-10-13T05:07:51;15.35;;;10.48;;
16792;SDS011;8513;42.662;23.350;2023-10-13T05:10:36;16.52;;;10.52;;
16792;SDS011;8513;42.662;23.350;2023-10-13T05:13:21;13.98;;;10.20;;
16792;SDS011;8513;42.662;23.350;2023-10-13T05:16:05;18.90;;;11.20;;
16792;SDS011;8513;42.662;23.350;2023-10-13T05:18:49;13.88;;;10.20;;
16792;SDS011;8513;42.662;23.350;2023-10-13T05:21:33;15.68;;;10.63;;
16792;SDS011;8513;42.662;23.350;2023-10-13T05:24:17;17.23;;;10.20;;
16792;SDS011;8513;42.662;23.350;2023-10-13T05:27:01;20.33;;;10.32;;
16792;SDS011;8513;42.662;23.350;2023-10-13T05:29:46;17.58;;;10.48;;
16792;SDS011;8513;42.662;23.350;2023-10-13T05:32:30;14.45;;;10.30;;
16792;SDS011;8513;42.662;23.350;2023-10-13T05:35:15;19.80;;;11.30;;
16792;SDS011;8513;42.662;23.350;2023-10-13T05:38:00;13.98;;;10.70;;
16792;SDS011;8513;42.662;23.350;2023-10-13T05:43:44;17.48;;;10.75;;
16792;SDS011;8513;42.662;23.350;2023-10-13T05:46:28;19.92;;;10.93;;
16792;SDS011;8513;42.662;23.350;2023-10-13T05:49:03;15.68;;;11.63;;
16792;SDS011;8513;42.662;23.350;2023-10-13T05:51:32;20.00;;;12.68;;
16792;SDS011;8513;42.662;23.350;2023-10-13T05:53:59;16.40;;;12.48;;
16792;SDS011;8513;42.662;23.350;2023-10-13T05:56:40;16.95;;;11.95;;
16792;SDS011;8513;42.662;23.350;2023-10-13T05:59:28;14.93;;;11.90;;
16792;SDS011;8513;42.662;23.350;2023-10-13T06:02:14;18.67;;;11.27;;
16792;SDS011;8513;42.662;23.350;2023-10-13T06:05:05;18.40;;;12.30;;
16792;SDS011;8513;42.662;23.350;2023-10-13T06:07:50;18.85;;;12.05;;
16792;SDS011;8513;42.662;23.350;2023-10-13T06:10:36;21.23;;;12.38;;
16792;SDS011;8513;42.662;23.350;2023-10-13T06:13:20;22.02;;;15.68;;
16792;SDS011;8513;42.662;23.350;2023-10-13T06:16:05;18.77;;;13.02;;
16792;SDS011;8513;42.662;23.350;2023-10-13T06:18:50;15.50;;;13.07;;
16792;SDS011;8513;42.662;23.350;2023-10-13T06:21:34;18.45;;;12.75;;
16792;SDS011;8513;42.662;23.350;2023-10-13T06:24:17;15.73;;;12.20;;
16792;SDS011;8513;42.662;23.350;2023-10-13T06:27:01;16.33;;;11.57;;
16792;SDS011;8513;42.662;23.350;2023-10-13T06:29:45;15.73;;;11.95;;
16792;SDS011;8513;42.662;23.350;2023-10-13T06:32:12;19.63;;;11.93;;
16792;SDS011;8513;42.662;23.350;2023-10-13T06:34:37;22.48;;;12.68;;
16792;SDS011;8513;42.662;23.350;2023-10-13T06:37:07;17.95;;;12.35;;
16792;SDS011;8513;42.662;23.350;2023-10-13T06:39:52;16.70;;;12.32;;
16792;SDS011;8513;42.662;23.350;2023-10-13T06:42:24;14.07;;;11.52;;
16792;SDS011;8513;42.662;23.350;2023-10-13T06:44:56;12.30;;;11.02;;
16792;SDS011;8513;42.662;23.350;2023-10-13T06:47:25;16.08;;;9.70;;
16792;SDS011;8513;42.662;23.350;2023-10-13T06:49:52;16.10;;;10.15;;
16792;SDS011;8513;42.662;23.350;2023-10-13T06:52:22;14.20;;;9.77;;
16792;SDS011;8513;42.662;23.350;2023-10-13T06:54:54;12.15;;;9.98;;
16792;SDS011;8513;42.662;23.350;2023-10-13T06:57:20;16.90;;;10.32;;
16792;SDS011;8513;42.662;23.350;2023-10-13T06:59:46;17.27;;;11.60;;
16792;SDS011;8513;42.662;23.350;2023-10-13T07:02:12;18.02;;;12.55;;
16792;SDS011;8513;42.662;23.350;2023-10-13T07:04:49;23.13;;;13.50;;
16792;SDS011;8513;42.662;23.350;2023-10-13T07:07:36;18.55;;;13.77;;
16792;SDS011;8513;42.662;23.350;2023-10-13T07:10:07;18.63;;;12.80;;
16792;SDS011;8513;42.662;23.350;2023-10-13T07:12:33;20.40;;;13.93;;
16792;SDS011;8513;42.662;23.350;2023-10-13T07:14:59;22.95;;;13.60;;
16792;SDS011;8513;42.662;23.350;2023-10-13T07:17:36;17.88;;;13.63;;
16792;SDS011;8513;42.662;23.350;2023-10-13T07:20:04;18.33;;;13.30;;
16792;SDS011;8513;42.662;23.350;2023-10-13T07:22:40;19.27;;;13.27;;
16792;SDS011;8513;42.662;23.350;2023-10-13T07:25:10;17.90;;;13.80;;
16792;SDS011;8513;42.662;23.350;2023-10-13T07:27:43;16.73;;;12.60;;
16792;SDS011;8513;42.662;23.350;2023-10-13T07:30:09;19.80;;;13.48;;
16792;SDS011;8513;42.662;23.350;2023-10-13T07:32:37;28.83;;;12.93;;
16792;SDS011;8513;42.662;23.350;2023-10-13T07:35:03;14.93;;;11.90;;
16792;SDS011;8513;42.662;23.350;2023-10-13T07:37:32;33.72;;;20.95;;
16792;SDS011;8513;42.662;23.350;2023-10-13T07:39:58;21.02;;;13.98;;
16792;SDS011;8513;42.662;23.350;2023-10-13T07:42:24;16.20;;;12.35;;
16792;SDS011;8513;42.662;23.350;2023-10-13T07:44:57;17.80;;;12.70;;
16792;SDS011;8513;42.662;23.350;2023-10-13T07:47:23;16.60;;;12.68;;
16792;SDS011;8513;42.662;23.350;2023-10-13T07:49:51;17.80;;;11.20;;
16792;SDS011;8513;42.662;23.350;2023-10-13T07:52:17;18.58;;;11.63;;
16792;SDS011;8513;42.662;23.350;2023-10-13T07:54:51;13.40;;;10.63;;
16792;SDS011;8513;42.662;23.350;2023-10-13T07:57:35;14.10;;;11.00;;
16792;SDS011;8513;42.662;23.350;2023-10-13T08:00:01;17.58;;;10.63;;
16792;SDS011;8513;42.662;23.350;2023-10-13T08:02:57;19.65;;;10.43;;
16792;SDS011;8513;42.662;23.350;2023-10-13T08:05:34;15.20;;;11.27;;
16792;SDS011;8513;42.662;23.350;2023-10-13T08:08:21;18.10;;;10.98;;
16792;SDS011;8513;42.662;23.350;2023-10-13T08:10:50;14.02;;;11.43;;
16792;SDS011;8513;42.662;23.350;2023-10-13T08:13:20;17.02;;;11.10;;
16792;SDS011;8513;42.662;23.350;2023-10-13T08:15:47;17.38;;;11.07;;
16792;SDS011;8513;42.662;23.350;2023-10-13T08:18:15;18.75;;;11.82;;
16792;SDS011;8513;42.662;23.350;2023-10-13T08:21:02;14.82;;;11.82;;
16792;SDS011;8513;42.662;23.350;2023-10-13T08:23:31;17.88;;;12.68;;
16792;SDS011;8513;42.662;23.350;2023-10-13T08:26:24;14.80;;;12.45;;
16792;SDS011;8513;42.662;23.350;2023-10-13T08:29:02;20.55;;;13.60;;
16792;SDS011;8513;42.662;23.350;2023-10-13T08:31:52;16.27;;;13.10;;
16792;SDS011;8513;42.662;23.350;2023-10-13T08:34:36;19.50;;;12.75;;
16792;SDS011;8513;42.662;23.350;2023-10-13T08:37:25;22.20;;;14.00;;
16792;SDS011;8513;42.662;23.350;2023-10-13T08:39:52;23.92;;;15.25;;
16792;SDS011;8513;42.662;23.350;2023-10-13T08:42:29;25.88;;;16.17;;
16792;SDS011;8513;42.662;23.350;2023-10-13T08:45:07;27.65;;;16.98;;
16792;SDS011;8513;42.662;23.350;2023-10-13T08:47:48;21.30;;;15.95;;
16792;SDS011;8513;42.662;23.350;2023-10-13T08:53:21;21.58;;;15.40;;
16792;SDS011;8513;42.662;23.350;2023-10-13T08:55:57;22.33;;;15.30;;
16792;SDS011;8513;42.662;23.350;2023-10-13T08:58:41;21.70;;;15.25;;
16792;SDS011;8513;42.662;23.350;2023-10-13T09:01:21;21.23;;;14.43;;
16792;SDS011;8513;42.662;23.350;2023-10-13T09:04:00;21.35;;;15.80;;
16792;SDS011;8513;42.662;23.350;2023-10-13T09:06:45;24.20;;;15.65;;
16792;SDS011;8513;42.662;23.350;2023-10-13T09:09:30;19.35;;;15.27;;
16792;SDS011;8513;42.662;23.350;2023-10-13T09:12:18;24.42;;;15.75;;
16792;SDS011;8513;42.662;23.350;2023-10-13T09:17:52;24.25;;;13.23;;
16792;SDS011;8513;42.662;23.350;2023-10-13T09:20:31;17.08;;;13.23;;
16792;SDS011;8513;42.662;23.350;2023-10-13T09:23:13;21.27;;;13.93;;
16792;SDS011;8513;42.662;23.350;2023-10-13T09:25:50;17.63;;;12.20;;
16792;SDS011;8513;42.662;23.350;2023-10-13T09:28:23;22.92;;;13.38;;
16792;SDS011;8513;42.662;23.350;2023-10-13T09:30:59;20.23;;;12.90;;
16792;SDS011;8513;42.662;23.350;2023-10-13T09:33:28;19.10;;;12.98;;
16792;SDS011;8513;42.662;23.350;2023-10-13T09:36:15;18.70;;;13.48;;
16792;SDS011;8513;42.662;23.350;2023-10-13T09:38:42;16.27;;;12.55;;
16792;SDS011;8513;42.662;23.350;2023-10-13T09:41:13;17.92;;;12.80;;
16792;SDS011;8513;42.662;23.350;2023-10-13T09:43:51;17.70;;;12.27;;
16792;SDS011;8513;42.662;23.350;2023-10-13T09:46:20;18.60;;;12.20;;
16792;SDS011;8513;42.662;23.350;2023-10-13T09:48:48;16.15;;;12.80;;
16792;SDS011;8513;42.662;23.350;2023-10-13T09:51:32;21.45;;;12.48;;
16792;SDS011;8513;42.662;23.350;2023-10-13T09:54:02;15.60;;;10.68;;
16792;SDS011;8513;42.662;23.350;2023-10-13T09:56:38;20.50;;;11.45;;
16792;SDS011;8513;42.662;23.350;2023-10-13T09:59:18;15.15;;;10.45;;
16792;SDS011;8513;42.662;23.350;2023-10-13T10:01:48;11.98;;;9.82;;
16792;SDS011;8513;42.662;23.350;2023-10-13T10:04:17;18.27;;;11.23;;
16792;SDS011;8513;42.662;23.350;2023-10-13T10:06:54;16.13;;;10.32;;
16792;SDS011;8513;42.662;23.350;2023-10-13T10:09:31;14.57;;;10.38;;
16792;SDS011;8513;42.662;23.350;2023-10-13T10:17:20;16.30;;;9.63;;
16792;SDS011;8513;42.662;23.350;2023-10-13T10:19:50;16.95;;;11.07;;
16792;SDS011;8513;42.662;23.350;2023-10-13T10:22:34;12.35;;;9.38;;
16792;SDS011;8513;42.662;23.350;2023-10-13T10:25:04;15.75;;;7.70;;
16792;SDS011;8513;42.662;23.350;2023-10-13T10:27:59;13.63;;;7.43;;
16792;SDS011;8513;42.662;23.350;2023-10-13T10:30:27;15.32;;;7.32;;
16792;SDS011;8513;42.662;23.350;2023-10-13T10:32:56;11.57;;;7.75;;
16792;SDS011;8513;42.662;23.350;2023-10-13T10:35:26;9.05;;;5.10;;
16792;SDS011;8513;42.662;23.350;2023-10-13T10:37:57;7.22;;;5.15;;
16792;SDS011;8513;42.662;23.350;2023-10-13T10:40:47;7.57;;;5.10;;
16792;SDS011;8513;42.662;23.350;2023-10-13T10:43:17;10.40;;;5.40;;
16792;SDS011;8513;42.662;23.350;2023-10-13T10:45:47;10.07;;;5.40;;
16792;SDS011;8513;42.662;23.350;2023-10-13T10:48:15;10.55;;;5.85;;
16792;SDS011;8513;42.662;23.350;2023-10-13T10:50:52;12.93;;;6.03;;
16792;SDS011;8513;42.662;23.350;2023-10-13T10:53:21;10.38;;;5.60;;
16792;SDS011;8513;42.662;23.350;2023-10-13T10:56:11;10.02;;;5.30;;
16792;SDS011;8513;42.662;23.350;2023-10-13T10:58:58;8.60;;;5.65;;
16792;SDS011;8513;42.662;23.350;2023-10-13T11:01:27;8.52;;;5.68;;
16792;SDS011;8513;42.662;23.350;2023-10-13T11:04:12;7.00;;;4.82;;
16792;SDS011;8513;42.662;23.350;2023-10-13T11:06:55;9.13;;;4.95;;
16792;SDS011;8513;42.662;23.350;2023-10-13T11:09:26;11.23;;;4.70;;
16792;SDS011;8513;42.662;23.350;2023-10-13T11:12:21;10.38;;;5.13;;
16792;SDS011;8513;42.662;23.350;2023-10-13T11:15:04;8.38;;;4.70;;
16792;SDS011;8513;42.662;23.350;2023-10-13T11:17:58;5.25;;;4.75;;
16792;SDS011;8513;42.662;23.350;2023-10-13T11:20:24;7.82;;;4.35;;
16792;SDS011;8513;42.662;23.350;2023-10-13T11:22:58;5.72;;;3.90;;
16792;SDS011;8513;42.662;23.350;2023-10-13T11:25:25;6.55;;;3.65;;
16792;SDS011;8513;42.662;23.350;2023-10-13T11:27:55;6.80;;;3.63;;
16792;SDS011;8513;42.662;23.350;2023-10-13T11:30:24;7.05;;;3.78;;
16792;SDS011;8513;42.662;23.350;2023-10-13T11:32:56;6.43;;;3.80;;
16792;SDS011;8513;42.662;23.350;2023-10-13T11:35:23;5.47;;;4.10;;
16792;SDS011;8513;42.662;23.350;2023-10-13T11:37:49;9.48;;;4.53;;
16792;SDS011;8513;42.662;23.350;2023-10-13T11:40:41;7.53;;;3.85;;
16792;SDS011;8513;42.662;23.350;2023-10-13T11:43:24;6.93;;;3.90;;
16792;SDS011;8513;42.662;23.350;2023-10-13T11:45:51;6.10;;;3.95;;
16792;SDS011;8513;42.662;23.350;2023-10-13T11:48:42;7.28;;;4.22;;
16792;SDS011;8513;42.662;23.350;2023-10-13T11:53:42;6.95;;;3.67;;
16792;SDS011;8513;42.662;23.350;2023-10-13T11:56:09;7.55;;;3.47;;
16792;SDS011;8513;42.662;23.350;2023-10-13T11:58:35;6.32;;;4.43;;
16792;SDS011;8513;42.662;23.350;2023-10-13T12:01:01;8.60;;;4.30;;
16792;SDS011;8513;42.662;23.350;2023-10-13T12:03:36;13.10;;;4.35;;
16792;SDS011;8513;42.662;23.350;2023-10-13T12:06:20;5.38;;;3.80;;
16792;SDS011;8513;42.662;23.350;2023-10-13T12:09:07;6.72;;;4.00;;
16792;SDS011;8513;42.662;23.350;2023-10-13T12:11:48;13.07;;;4.35;;
16792;SDS011;8513;42.662;23.350;2023-10-13T12:14:19;12.27;;;3.60;;
16792;SDS011;8513;42.662;23.350;2023-10-13T12:19:20;8.13;;;4.00;;
16792;SDS011;8513;42.662;23.350;2023-10-13T12:21:48;7.82;;;3.60;;
16792;SDS011;8513;42.662;23.350;2023-10-13T12:24:14;6.53;;;5.03;;
16792;SDS011;8513;42.662;23.350;2023-10-13T12:27:05;6.57;;;3.70;;
16792;SDS011;8513;42.662;23.350;2023-10-13T12:29:45;7.53;;;3.75;;
16792;SDS011;8513;42.662;23.350;2023-10-13T12:32:11;5.65;;;3.33;;
16792;SDS011;8513;42.662;23.350;2023-10-13T12:34:38;7.18;;;3.95;;
16792;SDS011;8513;42.662;23.350;2023-10-13T12:37:25;8.43;;;3.80;;
16792;SDS011;8513;42.662;23.350;2023-10-13T12:40:07;5.60;;;3.88;;
16792;SDS011;8513;42.662;23.350;2023-10-13T12:42:52;8.40;;;4.57;;
16792;SDS011;8513;42.662;23.350;2023-10-13T12:45:40;8.00;;;4.72;;
16792;SDS011;8513;42.662;23.350;2023-10-13T12:48:24;8.10;;;4.75;;
16792;SDS011;8513;42.662;23.350;2023-10-13T12:51:08;7.72;;;4.60;;
16792;SDS011;8513;42.662;23.350;2023-10-13T12:54:02;5.60;;;5.10;;
16792;SDS011;8513;42.662;23.350;2023-10-13T12:56:31;6.20;;;5.68;;
16792;SDS011;8513;42.662;23.350;2023-10-13T12:58:57;8.18;;;5.28;;
16792;SDS011;8513;42.662;23.350;2023-10-13T13:01:26;5.35;;;4.85;;
16792;SDS011;8513;42.662;23.350;2023-10-13T13:03:58;9.48;;;5.60;;
16792;SDS011;8513;42.662;23.350;2023-10-13T13:06:26;6.47;;;5.75;;
16792;SDS011;8513;42.662;23.350;2023-10-13T13:08:56;7.15;;;6.55;;
16792;SDS011;8513;42.662;23.350;2023-10-13T13:11:23;7.38;;;6.78;;
16792;SDS011;8513;42.662;23.350;2023-10-13T13:13:48;9.07;;;8.30;;
16792;SDS011;8513;42.662;23.350;2023-10-13T13:16:14;8.65;;;8.05;;
16792;SDS011;8513;42.662;23.350;2023-10-13T13:18:44;13.43;;;12.40;;
16792;SDS011;8513;42.662;23.350;2023-10-13T13:21:09;10.30;;;9.68;;
16792;SDS011;8513;42.662;23.350;2023-10-13T13:23:37;11.20;;;10.23;;
16792;SDS011;8513;42.662;23.350;2023-10-13T13:26:05;14.90;;;13.80;;
16792;SDS011;8513;42.662;23.350;2023-10-13T13:28:41;17.75;;;16.42;;
16792;SDS011;8513;42.662;23.350;2023-10-13T13:31:09;21.55;;;20.38;;
16792;SDS011;8513;42.662;23.350;2023-10-13T13:33:37;26.70;;;25.02;;
16792;SDS011;8513;42.662;23.350;2023-10-13T13:36:09;34.30;;;32.50;;
16792;SDS011;8513;42.662;23.350;2023-10-13T13:38:43;34.38;;;32.47;;
16792;SDS011;8513;42.662;23.350;2023-10-13T13:41:15;1999.90;;;999.90;;
16792;SDS011;8513;42.662;23.350;2023-10-13T13:43:49;1999.90;;;999.90;;
16792;SDS011;8513;42.662;23.350;2023-10-13T13:46:15;1999.90;;;999.90;;
16792;SDS011;8513;42.662;23.350;2023-10-13T13:48:52;1999.90;;;999.90;;
16792;SDS011;8513;42.662;23.350;2023-10-13T13:51:31;1999.90;;;999.90;;
16792;SDS011;8513;42.662;23.350;2023-10-13T13:53:58;1999.90;;;999.90;;
16792;SDS011;8513;42.662;23.350;2023-10-13T13:56:24;1999.90;;;999.90;;
16792;SDS011;8513;42.662;23.350;2023-10-13T13:58:52;1999.90;;;999.90;;
16792;SDS011;8513;42.662;23.350;2023-10-13T14:01:19;1999.90;;;999.90;;
16792;SDS011;8513;42.662;23.350;2023-10-13T14:03:52;1509.72;;;759.13;;
16792;SDS011;8513;42.662;23.350;2023-10-13T14:06:22;28.60;;;26.85;;
16792;SDS011;8513;42.662;23.350;2023-10-13T14:08:53;21.80;;;20.35;;
16792;SDS011;8513;42.662;23.350;2023-10-13T14:11:21;19.92;;;18.45;;
16792;SDS011;8513;42.662;23.350;2023-10-13T14:14:06;16.10;;;14.57;;
16792;SDS011;8513;42.662;23.350;2023-10-13T14:16:55;14.52;;;13.38;;
16792;SDS011;8513;42.662;23.350;2023-10-13T14:19:28;11.52;;;10.68;;
16792;SDS011;8513;42.662;23.350;2023-10-13T14:21:57;11.57;;;10.75;;
16792;SDS011;8513;42.662;23.350;2023-10-13T14:24:25;8.90;;;8.07;;
16792;SDS011;8513;42.662;23.350;2023-10-13T14:26:58;9.13;;;8.43;;
16792;SDS011;8513;42.662;23.350;2023-10-13T14:29:37;9.57;;;8.57;;
16792;SDS011;8513;42.662;23.350;2023-10-13T14:32:08;10.23;;;7.70;;
16792;SDS011;8513;42.662;23.350;2023-10-13T14:34:41;8.63;;;7.38;;
16792;SDS011;8513;42.662;23.350;2023-10-13T14:37:07;8.30;;;6.18;;
16792;SDS011;8513;42.662;23.350;2023-10-13T14:39:34;13.35;;;6.25;;
16792;SDS011;8513;42.662;23.350;2023-10-13T14:42:01;9.82;;;4.18;;
16792;SDS011;8513;42.662;23.350;2023-10-13T14:44:30;5.20;;;3.65;;
16792;SDS011;8513;42.662;23.350;2023-10-13T14:46:59;9.07;;;4.82;;
16792;SDS011;8513;42.662;23.350;2023-10-13T14:49:25;6.57;;;4.32;;
16792;SDS011;8513;42.662;23.350;2023-10-13T14:51:50;11.23;;;4.90;;
16792;SDS011;8513;42.662;23.350;2023-10-13T14:54:16;9.70;;;6.05;;
16792;SDS011;8513;42.662;23.350;2023-10-13T14:56:42;11.18;;;6.00;;
16792;SDS011;8513;42.662;23.350;2023-10-13T14:59:08;9.75;;;4.55;;
16792;SDS011;8513;42.662;23.350;2023-10-13T15:01:42;8.55;;;4.78;;
16792;SDS011;8513;42.662;23.350;2023-10-13T15:04:07;8.35;;;4.50;;
16792;SDS011;8513;42.662;23.350;2023-10-13T15:06:33;8.40;;;4.18;;
16792;SDS011;8513;42.662;23.350;2023-10-13T15:08:59;9.60;;;4.00;;
16792;SDS011;8513;42.662;23.350;2023-10-13T15:11:26;6.47;;;4.40;;
16792;SDS011;8513;42.662;23.350;2023-10-13T15:14:01;10.68;;;4.63;;
16792;SDS011;8513;42.662;23.350;2023-10-13T15:16:27;8.07;;;4.82;;
16792;SDS011;8513;42.662;23.350;2023-10-13T15:18:52;9.23;;;4.50;;
16792;SDS011;8513;42.662;23.350;2023-10-13T15:21:18;13.45;;;5.75;;
16792;SDS011;8513;42.662;23.350;2023-10-13T15:23:46;14.10;;;6.13;;
16792;SDS011;8513;42.662;23.350;2023-10-13T15:26:12;14.18;;;7.68;;
16792;SDS011;8513;42.662;23.350;2023-10-13T15:28:39;11.90;;;5.82;;
16792;SDS011;8513;42.662;23.350;2023-10-13T15:31:14;14.50;;;9.10;;
16792;SDS011;8513;42.662;23.350;2023-10-13T15:33:52;12.35;;;5.82;;
16792;SDS011;8513;42.662;23.350;2023-10-13T15:36:22;13.15;;;5.90;;